UAL1982 KDSM-KIAH
Flight info
| Callsign | UAL1982 |
|---|---|
| Flight time | N/A |
| Altitude | 36000 |
| Route | GPPLE BACNN J25 TUL CVE GUSHR3 |
| Aircraft | B739/M-SDE2E3FGHIRWXY/LB1 |
Departure
| Time | 2026-04-29 13:29 |
|---|---|
| Airport | Des Moines International Airport (KDSM) |
Arrival
| Time | N/A |
|---|---|
| Airport | George Bush Intercontinental Airport (KIAH) |
| Time | Latitude | Longitude | Altitude | Speed | Heading |
|---|---|---|---|---|---|
| 2026-04-29 12:58 | 41.53415 | -93.64935 | 930 ft | 0 kts | 281° |
| 2026-04-29 13:10 | 41.53412 | -93.64917 | 931 ft | 2 kts | 289° |
| 2026-04-29 13:10 | 41.53403 | -93.64899 | 933 ft | 2 kts | 345° |
| 2026-04-29 13:11 | 41.53391 | -93.64897 | 932 ft | 1 kts | 2° |
| 2026-04-29 13:11 | 41.53389 | -93.64897 | 932 ft | 0 kts | 2° |
| 2026-04-29 13:13 | 41.53402 | -93.64897 | 933 ft | 4 kts | 2° |
| 2026-04-29 13:13 | 41.53425 | -93.64896 | 932 ft | 3 kts | 2° |
| 2026-04-29 13:13 | 41.53439 | -93.64895 | 930 ft | 0 kts | 2° |
| 2026-04-29 13:21 | 41.53444 | -93.64895 | 933 ft | 3 kts | 359° |
| 2026-04-29 13:21 | 41.53485 | -93.64898 | 928 ft | 9 kts | 355° |
| 2026-04-29 13:21 | 41.53541 | -93.64897 | 927 ft | 6 kts | 6° |
| 2026-04-29 13:21 | 41.53581 | -93.64891 | 927 ft | 6 kts | 6° |
| 2026-04-29 13:22 | 41.53615 | -93.64889 | 929 ft | 0 kts | 357° |
| 2026-04-29 13:26 | 41.53618 | -93.64889 | 929 ft | 2 kts | 357° |
| 2026-04-29 13:27 | 41.53649 | -93.64895 | 929 ft | 8 kts | 349° |
| 2026-04-29 13:27 | 41.53708 | -93.64940 | 928 ft | 11 kts | 303° |
| 2026-04-29 13:27 | 41.53748 | -93.65029 | 928 ft | 11 kts | 301° |
| 2026-04-29 13:27 | 41.53756 | -93.65125 | 926 ft | 10 kts | 255° |
| 2026-04-29 13:28 | 41.53712 | -93.65210 | 923 ft | 16 kts | 232° |
| 2026-04-29 13:28 | 41.53647 | -93.65325 | 922 ft | 20 kts | 233° |
| 2026-04-29 13:28 | 41.53528 | -93.65538 | 913 ft | 50 kts | 233° |
| 2026-04-29 13:28 | 41.53184 | -93.66165 | 919 ft | 115 kts | 234° |
| 2026-04-29 13:29 | 41.52610 | -93.67217 | 959 ft | 155 kts | 237° |
| 2026-04-29 13:29 | 41.51957 | -93.68389 | 1443 ft | 162 kts | 237° |
| 2026-04-29 13:29 | 41.51288 | -93.69669 | 2003 ft | 173 kts | 243° |
| 2026-04-29 13:29 | 41.50634 | -93.71050 | 2598 ft | 177 kts | 244° |
| 2026-04-29 13:30 | 41.49965 | -93.72516 | 2909 ft | 199 kts | 243° |
| 2026-04-29 13:30 | 41.49187 | -93.74156 | 3128 ft | 220 kts | 241° |
| 2026-04-29 13:30 | 41.48156 | -93.75779 | 3382 ft | 240 kts | 219° |
| 2026-04-29 13:30 | 41.46706 | -93.76982 | 3908 ft | 247 kts | 214° |
| 2026-04-29 13:31 | 41.45219 | -93.78179 | 4378 ft | 262 kts | 215° |
| 2026-04-29 13:31 | 41.43633 | -93.79473 | 5024 ft | 269 kts | 215° |
| 2026-04-29 13:31 | 41.42029 | -93.80792 | 5790 ft | 271 kts | 216° |
| 2026-04-29 13:31 | 41.40409 | -93.82134 | 6515 ft | 276 kts | 216° |
| 2026-04-29 13:32 | 41.38793 | -93.83481 | 7226 ft | 277 kts | 217° |
| 2026-04-29 13:32 | 41.37153 | -93.84853 | 8009 ft | 278 kts | 217° |
| 2026-04-29 13:32 | 41.35507 | -93.86233 | 8770 ft | 279 kts | 218° |
| 2026-04-29 13:32 | 41.33859 | -93.87618 | 9504 ft | 281 kts | 219° |
| 2026-04-29 13:33 | 41.32196 | -93.89017 | 10229 ft | 284 kts | 219° |
| 2026-04-29 13:33 | 41.30492 | -93.90456 | 10460 ft | 304 kts | 219° |
| 2026-04-29 13:33 | 41.28644 | -93.92020 | 10629 ft | 325 kts | 218° |
| 2026-04-29 13:33 | 41.26679 | -93.93676 | 10897 ft | 340 kts | 218° |
| 2026-04-29 13:34 | 41.24655 | -93.95370 | 11467 ft | 345 kts | 218° |
| 2026-04-29 13:34 | 41.22646 | -93.97047 | 12187 ft | 345 kts | 218° |
| 2026-04-29 13:34 | 41.20600 | -93.98758 | 12918 ft | 347 kts | 219° |
| 2026-04-29 13:34 | 41.18537 | -94.00486 | 13610 ft | 351 kts | 219° |
| 2026-04-29 13:35 | 41.16464 | -94.02222 | 14293 ft | 354 kts | 219° |
| 2026-04-29 13:35 | 41.14288 | -94.03821 | 14993 ft | 361 kts | 211° |
| 2026-04-29 13:35 | 41.11911 | -94.04890 | 15664 ft | 372 kts | 201° |
| 2026-04-29 13:35 | 41.09357 | -94.05604 | 16346 ft | 376 kts | 199° |
| 2026-04-29 13:36 | 41.06779 | -94.06267 | 17026 ft | 378 kts | 199° |
| 2026-04-29 13:36 | 41.04178 | -94.06926 | 17650 ft | 380 kts | 200° |
| 2026-04-29 13:36 | 41.02444 | -94.07368 | 18113 ft | 381 kts | 200° |
| 2026-04-29 13:36 | 40.98979 | -94.08263 | 18921 ft | 384 kts | 201° |
| 2026-04-29 13:37 | 40.96349 | -94.08952 | 19481 ft | 386 kts | 201° |
| 2026-04-29 13:37 | 40.93699 | -94.09651 | 20046 ft | 388 kts | 201° |
| 2026-04-29 13:37 | 40.91936 | -94.10117 | 20428 ft | 390 kts | 201° |
| 2026-04-29 13:37 | 40.88390 | -94.11057 | 21176 ft | 393 kts | 201° |
| 2026-04-29 13:38 | 40.86592 | -94.11534 | 21553 ft | 394 kts | 201° |
| 2026-04-29 13:38 | 40.83884 | -94.12253 | 22106 ft | 397 kts | 201° |
| 2026-04-29 13:38 | 40.81169 | -94.12972 | 22678 ft | 397 kts | 202° |
| 2026-04-29 13:38 | 40.78444 | -94.13693 | 23259 ft | 399 kts | 202° |
| 2026-04-29 13:39 | 40.75745 | -94.14408 | 23769 ft | 402 kts | 202° |
| 2026-04-29 13:39 | 40.72985 | -94.15139 | 24194 ft | 405 kts | 202° |
| 2026-04-29 13:39 | 40.70197 | -94.15877 | 24624 ft | 408 kts | 202° |
| 2026-04-29 13:39 | 40.67436 | -94.16606 | 25044 ft | 410 kts | 202° |
| 2026-04-29 13:40 | 40.64626 | -94.17347 | 25467 ft | 413 kts | 202° |
| 2026-04-29 13:40 | 40.61785 | -94.18094 | 25887 ft | 415 kts | 202° |
| 2026-04-29 13:40 | 40.58946 | -94.18842 | 26290 ft | 418 kts | 202° |
| 2026-04-29 13:40 | 40.56083 | -94.19595 | 26664 ft | 420 kts | 202° |
| 2026-04-29 13:41 | 40.53234 | -94.20343 | 27077 ft | 422 kts | 202° |
| 2026-04-29 13:41 | 40.50340 | -94.21102 | 27456 ft | 425 kts | 202° |
| 2026-04-29 13:41 | 40.47427 | -94.21867 | 27833 ft | 427 kts | 202° |
| 2026-04-29 13:41 | 40.44494 | -94.22636 | 28203 ft | 430 kts | 201° |
| 2026-04-29 13:42 | 40.41570 | -94.23401 | 28576 ft | 432 kts | 201° |
| 2026-04-29 13:42 | 40.38605 | -94.24177 | 28899 ft | 435 kts | 201° |
| 2026-04-29 13:42 | 40.35620 | -94.24956 | 29253 ft | 437 kts | 201° |
| 2026-04-29 13:42 | 40.32624 | -94.25738 | 29634 ft | 439 kts | 201° |
| 2026-04-29 13:43 | 40.29632 | -94.26516 | 30138 ft | 438 kts | 201° |
| 2026-04-29 13:43 | 40.26652 | -94.27290 | 30629 ft | 435 kts | 201° |
| 2026-04-29 13:43 | 40.23718 | -94.28053 | 31032 ft | 434 kts | 201° |
| 2026-04-29 13:43 | 40.20746 | -94.28828 | 31381 ft | 435 kts | 202° |
| 2026-04-29 13:44 | 40.17776 | -94.29623 | 31735 ft | 432 kts | 204° |
| 2026-04-29 13:44 | 40.14943 | -94.30765 | 32058 ft | 420 kts | 211° |
| 2026-04-29 13:44 | 40.12218 | -94.32137 | 32461 ft | 418 kts | 212° |
| 2026-04-29 13:44 | 40.09518 | -94.33531 | 32812 ft | 417 kts | 212° |
| 2026-04-29 13:45 | 40.06844 | -94.34913 | 33139 ft | 417 kts | 213° |
| 2026-04-29 13:45 | 40.04131 | -94.36303 | 33487 ft | 417 kts | 212° |
| 2026-04-29 13:45 | 40.01423 | -94.37676 | 33854 ft | 416 kts | 212° |
| 2026-04-29 13:45 | 39.98718 | -94.39037 | 34181 ft | 416 kts | 212° |
| 2026-04-29 13:46 | 39.96046 | -94.40374 | 34439 ft | 416 kts | 212° |
| 2026-04-29 13:46 | 39.93338 | -94.41725 | 34647 ft | 416 kts | 213° |
| 2026-04-29 13:46 | 39.90634 | -94.43071 | 34928 ft | 415 kts | 213° |
| 2026-04-29 13:46 | 39.87934 | -94.44413 | 35168 ft | 415 kts | 212° |
| 2026-04-29 13:47 | 39.85221 | -94.45762 | 35383 ft | 416 kts | 212° |
| 2026-04-29 13:47 | 39.82546 | -94.47091 | 35606 ft | 416 kts | 212° |
| 2026-04-29 13:47 | 39.79835 | -94.48436 | 35834 ft | 416 kts | 212° |
| 2026-04-29 13:47 | 39.77124 | -94.49780 | 36058 ft | 416 kts | 212° |
| 2026-04-29 13:48 | 39.74408 | -94.51126 | 36195 ft | 418 kts | 212° |
| 2026-04-29 13:48 | 39.71676 | -94.52481 | 36131 ft | 419 kts | 212° |
| 2026-04-29 13:48 | 39.66277 | -94.55143 | 36181 ft | 414 kts | 213° |
| 2026-04-29 13:49 | 39.60894 | -94.57795 | 36201 ft | 411 kts | 213° |
| 2026-04-29 13:49 | 39.55588 | -94.60411 | 36193 ft | 409 kts | 213° |
| 2026-04-29 13:50 | 39.50258 | -94.63036 | 36192 ft | 408 kts | 213° |
| 2026-04-29 13:50 | 39.44933 | -94.65652 | 36179 ft | 407 kts | 214° |
| 2026-04-29 13:51 | 39.39652 | -94.68243 | 36181 ft | 408 kts | 214° |
| 2026-04-29 13:51 | 39.34336 | -94.70847 | 36214 ft | 409 kts | 213° |
| 2026-04-29 13:52 | 39.29028 | -94.73440 | 36214 ft | 410 kts | 213° |
| 2026-04-29 13:52 | 39.23477 | -94.75633 | 36193 ft | 420 kts | 209° |
| 2026-04-29 13:53 | 39.17804 | -94.77575 | 36203 ft | 421 kts | 208° |
| 2026-04-29 13:53 | 39.12173 | -94.79512 | 36206 ft | 421 kts | 208° |
| 2026-04-29 13:54 | 39.06507 | -94.81496 | 36197 ft | 421 kts | 209° |
| 2026-04-29 13:54 | 39.00884 | -94.83479 | 36162 ft | 420 kts | 209° |
| 2026-04-29 13:55 | 38.95256 | -94.85462 | 36197 ft | 418 kts | 210° |
| 2026-04-29 13:55 | 38.89647 | -94.87437 | 36210 ft | 417 kts | 210° |
| 2026-04-29 13:56 | 38.84091 | -94.89391 | 36210 ft | 416 kts | 210° |
| 2026-04-29 13:56 | 38.78503 | -94.91353 | 36154 ft | 415 kts | 210° |
| 2026-04-29 13:57 | 38.72978 | -94.93287 | 36197 ft | 413 kts | 210° |
| 2026-04-29 13:57 | 38.67437 | -94.95226 | 36201 ft | 411 kts | 210° |
| 2026-04-29 13:58 | 38.61921 | -94.97153 | 36199 ft | 410 kts | 210° |
| 2026-04-29 13:58 | 38.56399 | -94.99079 | 36193 ft | 410 kts | 210° |
| 2026-04-29 13:59 | 38.50917 | -95.00987 | 36185 ft | 408 kts | 210° |
| 2026-04-29 13:59 | 38.45460 | -95.02885 | 36204 ft | 408 kts | 210° |
| 2026-04-29 14:00 | 38.39971 | -95.04791 | 36196 ft | 408 kts | 210° |
| 2026-04-29 14:00 | 38.34484 | -95.06693 | 36203 ft | 408 kts | 210° |
| 2026-04-29 14:01 | 38.29034 | -95.08579 | 36192 ft | 408 kts | 210° |
| 2026-04-29 14:01 | 38.23548 | -95.10475 | 36196 ft | 408 kts | 210° |
| 2026-04-29 14:02 | 38.18046 | -95.12373 | 36200 ft | 408 kts | 210° |
| 2026-04-29 14:02 | 38.12573 | -95.14256 | 36191 ft | 409 kts | 210° |
| 2026-04-29 14:03 | 38.07059 | -95.16146 | 36133 ft | 409 kts | 210° |
| 2026-04-29 14:03 | 38.01589 | -95.18017 | 36183 ft | 409 kts | 210° |
| 2026-04-29 14:04 | 37.96112 | -95.19892 | 36189 ft | 408 kts | 210° |
| 2026-04-29 14:04 | 37.90615 | -95.21770 | 36197 ft | 409 kts | 210° |
| 2026-04-29 14:05 | 37.85139 | -95.23639 | 36199 ft | 409 kts | 210° |
| 2026-04-29 14:05 | 37.79631 | -95.25513 | 36201 ft | 408 kts | 211° |
| 2026-04-29 14:06 | 37.74176 | -95.27367 | 36209 ft | 407 kts | 211° |
| 2026-04-29 14:06 | 37.68678 | -95.29236 | 36212 ft | 408 kts | 211° |
| 2026-04-29 14:07 | 37.63219 | -95.31087 | 36213 ft | 408 kts | 210° |
| 2026-04-29 14:07 | 37.57721 | -95.32948 | 36169 ft | 407 kts | 211° |
| 2026-04-29 14:08 | 37.52296 | -95.34780 | 36199 ft | 406 kts | 211° |
| 2026-04-29 14:08 | 37.46829 | -95.36625 | 36212 ft | 406 kts | 211° |
| 2026-04-29 14:09 | 37.41388 | -95.38460 | 36221 ft | 406 kts | 211° |
| 2026-04-29 14:09 | 37.35943 | -95.40293 | 36220 ft | 406 kts | 211° |
| 2026-04-29 14:10 | 37.30469 | -95.42130 | 36216 ft | 405 kts | 211° |
| 2026-04-29 14:10 | 37.25009 | -95.43963 | 36202 ft | 406 kts | 211° |
| 2026-04-29 14:11 | 37.19583 | -95.45781 | 36203 ft | 406 kts | 211° |
| 2026-04-29 14:11 | 37.14107 | -95.47612 | 36213 ft | 406 kts | 211° |
| 2026-04-29 14:12 | 37.08659 | -95.49432 | 36181 ft | 406 kts | 211° |
| 2026-04-29 14:12 | 37.03179 | -95.51259 | 36204 ft | 406 kts | 211° |
| 2026-04-29 14:13 | 36.97733 | -95.53073 | 36209 ft | 407 kts | 211° |
| 2026-04-29 14:13 | 36.92247 | -95.54898 | 36207 ft | 407 kts | 211° |
| 2026-04-29 14:14 | 36.86795 | -95.56709 | 36195 ft | 409 kts | 211° |
| 2026-04-29 14:14 | 36.81290 | -95.58532 | 36184 ft | 408 kts | 211° |
| 2026-04-29 14:15 | 36.75811 | -95.60345 | 36172 ft | 409 kts | 211° |
| 2026-04-29 14:15 | 36.70298 | -95.62168 | 36161 ft | 409 kts | 211° |
| 2026-04-29 14:16 | 36.64811 | -95.63979 | 36172 ft | 410 kts | 211° |
| 2026-04-29 14:16 | 36.59287 | -95.65799 | 36134 ft | 409 kts | 211° |
| 2026-04-29 14:17 | 36.53775 | -95.67611 | 36155 ft | 409 kts | 211° |
| 2026-04-29 14:17 | 36.48298 | -95.69411 | 36163 ft | 410 kts | 211° |
| 2026-04-29 14:18 | 36.42770 | -95.71226 | 36157 ft | 410 kts | 211° |
| 2026-04-29 14:18 | 36.37271 | -95.73027 | 36165 ft | 411 kts | 211° |
| 2026-04-29 14:19 | 36.31738 | -95.74836 | 36165 ft | 410 kts | 210° |
| 2026-04-29 14:19 | 36.26234 | -95.76635 | 36173 ft | 410 kts | 210° |
| 2026-04-29 14:20 | 36.20712 | -95.78437 | 36175 ft | 410 kts | 210° |
| 2026-04-29 14:20 | 36.15204 | -95.80299 | 36174 ft | 408 kts | 211° |
| 2026-04-29 14:21 | 36.09770 | -95.82224 | 36106 ft | 407 kts | 211° |
| 2026-04-29 14:21 | 36.04323 | -95.84150 | 36156 ft | 406 kts | 211° |
| 2026-04-29 14:22 | 35.98887 | -95.86063 | 36171 ft | 405 kts | 211° |
| 2026-04-29 14:22 | 35.93477 | -95.87958 | 36165 ft | 406 kts | 211° |
| 2026-04-29 14:23 | 35.88049 | -95.89855 | 36163 ft | 405 kts | 211° |
| 2026-04-29 14:23 | 35.82617 | -95.91750 | 36156 ft | 405 kts | 211° |
| 2026-04-29 14:24 | 35.77218 | -95.93631 | 36163 ft | 405 kts | 211° |
| 2026-04-29 14:24 | 35.71771 | -95.95526 | 36157 ft | 405 kts | 211° |
| 2026-04-29 14:25 | 35.67254 | -95.97095 | 36161 ft | 405 kts | 211° |
| 2026-04-29 14:25 | 35.60930 | -95.99289 | 36158 ft | 406 kts | 211° |
| 2026-04-29 14:26 | 35.56420 | -96.00851 | 36151 ft | 405 kts | 211° |
| 2026-04-29 14:26 | 35.50987 | -96.02730 | 36146 ft | 405 kts | 211° |
| 2026-04-29 14:27 | 35.45549 | -96.04609 | 36146 ft | 405 kts | 211° |
| 2026-04-29 14:28 | 35.37425 | -96.07412 | 36126 ft | 405 kts | 211° |
| 2026-04-29 14:28 | 35.32010 | -96.09275 | 36103 ft | 405 kts | 210° |
| 2026-04-29 14:29 | 35.26573 | -96.11146 | 36106 ft | 406 kts | 210° |
| 2026-04-29 14:29 | 35.21124 | -96.13017 | 36122 ft | 406 kts | 210° |
| 2026-04-29 14:30 | 35.15652 | -96.14893 | 36105 ft | 407 kts | 210° |
| 2026-04-29 14:30 | 35.10212 | -96.16755 | 36106 ft | 407 kts | 210° |
| 2026-04-29 14:31 | 35.04780 | -96.18611 | 36097 ft | 407 kts | 210° |
| 2026-04-29 14:31 | 34.99282 | -96.20489 | 36101 ft | 409 kts | 210° |
| 2026-04-29 14:32 | 34.93828 | -96.22351 | 36106 ft | 411 kts | 210° |
| 2026-04-29 14:32 | 34.88291 | -96.24237 | 36104 ft | 413 kts | 210° |
| 2026-04-29 14:33 | 34.82768 | -96.26115 | 36082 ft | 414 kts | 210° |
| 2026-04-29 14:33 | 34.77187 | -96.28011 | 36085 ft | 417 kts | 209° |
| 2026-04-29 14:34 | 34.71602 | -96.29903 | 36104 ft | 418 kts | 209° |
| 2026-04-29 14:34 | 34.65992 | -96.31802 | 36096 ft | 420 kts | 209° |
| 2026-04-29 14:35 | 34.60341 | -96.33713 | 36095 ft | 422 kts | 209° |
| 2026-04-29 14:35 | 34.54661 | -96.35630 | 36062 ft | 423 kts | 209° |
| 2026-04-29 14:36 | 34.48996 | -96.37539 | 36080 ft | 424 kts | 209° |
| 2026-04-29 14:36 | 34.43278 | -96.39462 | 36100 ft | 426 kts | 209° |
| 2026-04-29 14:37 | 34.37545 | -96.41387 | 36095 ft | 428 kts | 209° |
| 2026-04-29 14:37 | 34.31833 | -96.43308 | 36077 ft | 429 kts | 209° |
| 2026-04-29 14:38 | 34.26056 | -96.45244 | 36081 ft | 430 kts | 208° |
| 2026-04-29 14:38 | 34.20271 | -96.47184 | 36099 ft | 432 kts | 209° |
| 2026-04-29 14:39 | 34.14486 | -96.49120 | 36100 ft | 435 kts | 209° |
| 2026-04-29 14:39 | 34.08639 | -96.51071 | 36109 ft | 437 kts | 209° |
| 2026-04-29 14:40 | 34.02743 | -96.53034 | 36049 ft | 439 kts | 208° |
| 2026-04-29 14:40 | 33.96901 | -96.54972 | 36100 ft | 437 kts | 208° |
| 2026-04-29 14:41 | 33.91047 | -96.56915 | 36067 ft | 435 kts | 208° |
| 2026-04-29 14:41 | 33.85222 | -96.58848 | 36066 ft | 433 kts | 208° |